Time;durP1;ratioP1;P1;durP2;ratioP2;P2;SDS_P1;SDS_P2;PMS_P1;PMS_P2;Temp;Humidity;BMP_temperature;BMP_pressure;BME280_temperature;BME280_humidity;BME280_pressure;Samples;Min_cycle;Max_cycle;Signal;HPM_P1;HPM_P2
2021/01/08 00:01:50;;;;;;;23.70;18.33;;;2.70;99.90;;;;;;5032742;28;20188;-55
2021/01/08 00:04:16;;;;;;;23.43;18.10;;;2.80;99.90;;;;;;5025349;28;20188;-55
2021/01/08 00:06:41;;;;;;;24.03;18.57;;;2.80;99.90;;;;;;5013323;28;20525;-51
2021/01/08 00:09:07;;;;;;;26.10;20.43;;;2.80;99.90;;;;;;5033536;28;20299;-51
2021/01/08 00:11:35;;;;;;;26.33;21.10;;;2.80;99.90;;;;;;5033395;28;20539;-53
2021/01/08 00:14:04;;;;;;;23.37;18.60;;;2.90;99.90;;;;;;5019209;28;20179;-53
2021/01/08 00:16:36;;;;;;;25.10;19.30;;;3.00;99.90;;;;;;5035865;28;20498;-55
2021/01/08 00:19:03;;;;;;;24.00;18.20;;;2.80;99.90;;;;;;5036382;28;20512;-51
2021/01/08 00:21:42;;;;;;;23.93;18.97;;;2.70;99.90;;;;;;5036429;28;20203;-57
2021/01/08 00:24:11;;;;;;;23.03;18.47;;;2.50;99.90;;;;;;5036542;28;20639;-49
2021/01/08 00:26:37;;;;;;;25.07;18.93;;;2.30;99.90;;;;;;5033756;28;20438;-51
2021/01/08 00:29:04;;;;;;;24.17;18.47;;;2.40;99.90;;;;;;5036820;28;20438;-50
2021/01/08 00:31:42;;;;;;;24.77;18.97;;;2.30;99.90;;;;;;5036353;28;22423;-52
2021/01/08 00:34:08;;;;;;;23.77;18.67;;;2.40;99.90;;;;;;5036957;28;20402;-56
2021/01/08 00:36:35;;;;;;;26.20;19.87;;;2.20;99.90;;;;;;5034050;28;20465;-55
2021/01/08 00:39:02;;;;;;;31.67;23.30;;;2.20;99.90;;;;;;5016716;28;20462;-50
2021/01/08 00:41:35;;;;;;;26.33;19.43;;;2.10;99.90;;;;;;5017513;28;20408;-52
2021/01/08 00:44:01;;;;;;;24.83;19.30;;;2.10;99.90;;;;;;5036404;28;20446;-49
2021/01/08 00:46:35;;;;;;;26.60;20.30;;;2.20;99.90;;;;;;5036469;28;20480;-50
2021/01/08 00:49:02;;;;;;;28.80;20.77;;;2.20;99.90;;;;;;5036298;28;20190;-52
2021/01/08 00:51:28;;;;;;;30.93;22.70;;;2.10;99.90;;;;;;5023643;28;20428;-53
2021/01/08 00:53:53;;;;;;;25.80;19.67;;;2.00;99.90;;;;;;5016199;28;20418;-55
2021/01/08 00:56:20;;;;;;;30.17;22.83;;;1.70;99.90;;;;;;5017128;28;20191;-50
2021/01/08 00:58:45;;;;;;;27.87;21.23;;;1.70;99.90;;;;;;5015914;28;20189;-51
2021/01/08 01:01:11;;;;;;;29.83;21.53;;;1.70;99.90;;;;;;5025114;28;20465;-50
2021/01/08 01:03:37;;;;;;;28.60;19.73;;;1.60;99.90;;;;;;5035804;28;20279;-52
2021/01/08 01:06:03;;;;;;;25.87;19.73;;;1.60;99.90;;;;;;5034156;28;20509;-57
2021/01/08 01:08:28;;;;;;;29.77;21.67;;;1.60;99.90;;;;;;5036257;28;20524;-52
2021/01/08 01:10:54;;;;;;;26.97;20.43;;;1.60;99.90;;;;;;5027184;28;20181;-52
2021/01/08 01:13:19;;;;;;;28.93;20.60;;;1.50;99.90;;;;;;5016020;28;20576;-50
2021/01/08 01:15:45;;;;;;;29.47;21.87;;;1.50;99.90;;;;;;5004597;28;20195;-50
2021/01/08 01:18:10;;;;;;;30.40;23.73;;;1.50;99.90;;;;;;5035381;28;20235;-51
2021/01/08 01:20:36;;;;;;;27.67;20.47;;;1.40;99.90;;;;;;5034465;28;20199;-49
2021/01/08 01:23:02;;;;;;;28.87;21.07;;;1.40;99.90;;;;;;5035146;28;20179;-54
2021/01/08 01:25:27;;;;;;;31.57;22.87;;;1.40;99.90;;;;;;5033955;28;20188;-56
2021/01/08 01:27:53;;;;;;;33.00;23.97;;;1.40;99.90;;;;;;4999870;28;20196;-55
2021/01/08 01:30:19;;;;;;;29.07;22.17;;;1.40;99.90;;;;;;5029557;28;20231;-49
2021/01/08 01:32:44;;;;;;;33.73;24.90;;;1.40;99.90;;;;;;5036054;28;20183;-50
2021/01/08 01:35:10;;;;;;;28.63;21.73;;;1.30;99.90;;;;;;5026773;28;20442;-50
2021/01/08 01:37:35;;;;;;;33.10;24.20;;;1.30;99.90;;;;;;5034173;28;20198;-51
2021/01/08 01:40:01;;;;;;;30.70;21.83;;;1.40;99.90;;;;;;5033878;28;20220;-52
2021/01/08 01:42:27;;;;;;;33.30;25.17;;;1.40;99.90;;;;;;5035121;28;20211;-50
2021/01/08 01:44:52;;;;;;;27.17;20.40;;;1.40;99.90;;;;;;5034469;28;20180;-56
2021/01/08 01:47:18;;;;;;;30.10;22.60;;;1.40;99.90;;;;;;5034559;28;20502;-51
2021/01/08 01:49:43;;;;;;;24.87;19.73;;;1.40;99.90;;;;;;5027296;28;20287;-51
2021/01/08 01:52:09;;;;;;;27.30;21.33;;;1.50;99.90;;;;;;5020009;28;20184;-50
2021/01/08 01:54:35;;;;;;;29.33;21.93;;;1.60;99.90;;;;;;5033998;28;20527;-50
2021/01/08 01:57:01;;;;;;;28.87;21.47;;;1.60;99.90;;;;;;5034651;28;20636;-49
2021/01/08 01:59:26;;;;;;;27.83;20.73;;;1.80;99.90;;;;;;5031061;28;20302;-56
2021/01/08 02:01:53;;;;;;;27.53;21.27;;;1.90;99.90;;;;;;5014783;28;20284;-56
2021/01/08 02:04:19;;;;;;;27.30;21.00;;;1.90;99.90;;;;;;5016275;28;20181;-49
2021/01/08 02:06:45;;;;;;;31.10;23.07;;;1.80;99.90;;;;;;5034434;28;20407;-51
2021/01/08 02:09:13;;;;;;;29.70;21.63;;;1.70;99.90;;;;;;5032815;28;20541;-50
2021/01/08 02:11:42;;;;;;;29.27;22.17;;;1.70;99.90;;;;;;5033888;28;20184;-52
2021/01/08 02:14:19;;;;;;;28.43;21.43;;;1.60;99.90;;;;;;5033862;28;20513;-56
2021/01/08 02:16:47;;;;;;;28.07;21.40;;;1.60;99.90;;;;;;5022533;28;20431;-56
2021/01/08 02:19:28;;;;;;;29.63;21.63;;;1.70;99.90;;;;;;5014391;28;20451;-56
2021/01/08 02:22:04;;;;;;;30.47;22.23;;;1.70;99.90;;;;;;5026766;28;20418;-49
2021/01/08 02:24:39;;;;;;;27.10;21.27;;;1.60;99.90;;;;;;5034789;28;20410;-49
2021/01/08 02:27:04;;;;;;;30.53;22.23;;;1.50;99.90;;;;;;5020546;28;20423;-50
2021/01/08 02:29:31;;;;;;;30.00;22.37;;;1.50;99.90;;;;;;5026807;28;20473;-52
2021/01/08 02:31:56;;;;;;;30.80;23.17;;;1.40;99.90;;;;;;5034084;28;20175;-53
2021/01/08 02:34:23;;;;;;;28.70;21.70;;;1.30;99.90;;;;;;5023879;28;20424;-53
2021/01/08 02:36:50;;;;;;;28.27;20.63;;;1.40;99.90;;;;;;5014196;28;20219;-57
2021/01/08 02:39:16;;;;;;;29.20;22.17;;;1.50;99.90;;;;;;5022949;28;20442;-50
2021/01/08 02:41:44;;;;;;;28.50;21.13;;;1.50;99.90;;;;;;5029278;28;20423;-51
2021/01/08 02:44:14;;;;;;;33.40;25.20;;;1.50;99.90;;;;;;5025469;28;20188;-50
2021/01/08 02:46:41;;;;;;;35.23;24.17;;;1.50;99.90;;;;;;5033590;28;20422;-50
2021/01/08 02:49:06;;;;;;;27.87;21.07;;;1.60;99.90;;;;;;5032644;28;20418;-51
2021/01/08 02:51:32;;;;;;;34.50;25.13;;;1.60;99.90;;;;;;5015012;28;20408;-54
2021/01/08 02:53:58;;;;;;;31.23;23.10;;;1.70;99.90;;;;;;5015130;28;20271;-49
2021/01/08 02:56:33;;;;;;;29.40;21.23;;;1.70;99.90;;;;;;5014474;28;20227;-50
2021/01/08 02:59:00;;;;;;;32.93;23.30;;;1.70;99.90;;;;;;5019301;28;20515;-51
2021/01/08 03:01:26;;;;;;;36.20;25.70;;;1.70;99.90;;;;;;5033249;28;20430;-53
2021/01/08 03:03:52;;;;;;;28.10;21.13;;;1.60;99.90;;;;;;5008583;28;20451;-51
2021/01/08 03:06:18;;;;;;;35.30;25.27;;;1.60;99.90;;;;;;5013879;28;20403;-52
2021/01/08 03:08:44;;;;;;;31.00;23.07;;;1.60;99.90;;;;;;5028088;28;20274;-56
2021/01/08 03:11:10;;;;;;;27.97;21.23;;;1.60;99.90;;;;;;5032872;28;20233;-52
2021/01/08 03:13:40;;;;;;;30.97;22.80;;;1.60;99.90;;;;;;5025644;28;20231;-53
2021/01/08 03:16:07;;;;;;;30.17;21.67;;;1.50;99.90;;;;;;4995907;28;20488;-49
2021/01/08 03:18:32;;;;;;;27.13;19.80;;;1.50;99.90;;;;;;5027436;28;20453;-49
2021/01/08 03:20:58;;;;;;;26.23;20.00;;;1.60;99.90;;;;;;5032277;28;20466;-55
2021/01/08 03:23:23;;;;;;;27.43;20.73;;;1.70;99.90;;;;;;5033010;28;20219;-56
2021/01/08 03:25:49;;;;;;;31.87;23.27;;;1.70;99.90;;;;;;5032796;28;20641;-55
2021/01/08 03:28:15;;;;;;;27.80;21.80;;;1.60;99.90;;;;;;5031268;28;20279;-55
2021/01/08 03:30:40;;;;;;;27.67;19.90;;;1.60;99.90;;;;;;5031789;28;20188;-55
2021/01/08 03:33:06;;;;;;;24.13;18.57;;;1.60;99.90;;;;;;5033203;28;20640;-49
2021/01/08 03:35:31;;;;;;;27.17;20.13;;;1.70;99.90;;;;;;5032924;28;20175;-50
2021/01/08 03:37:57;;;;;;;24.87;18.57;;;1.80;99.90;;;;;;5032346;28;20211;-51
2021/01/08 03:40:22;;;;;;;23.27;18.90;;;1.90;99.90;;;;;;5030402;28;20230;-50
2021/01/08 03:42:48;;;;;;;26.67;19.87;;;2.10;99.90;;;;;;5032776;28;20194;-51
2021/01/08 03:45:13;;;;;;;28.53;21.47;;;2.10;99.90;;;;;;5036388;28;20186;-54
2021/01/08 03:47:39;;;;;;;28.07;21.10;;;2.00;99.90;;;;;;5035814;28;20176;-49
2021/01/08 03:50:05;;;;;;;27.57;20.10;;;2.10;99.90;;;;;;5037271;28;20548;-53
2021/01/08 03:52:30;;;;;;;26.60;20.23;;;2.00;99.90;;;;;;5036335;28;20215;-50
2021/01/08 03:54:56;;;;;;;24.07;19.40;;;1.90;99.90;;;;;;5037369;28;20445;-50
2021/01/08 03:57:21;;;;;;;25.13;18.70;;;1.90;99.90;;;;;;5025203;28;20231;-52
2021/01/08 03:59:47;;;;;;;28.10;20.87;;;1.90;99.90;;;;;;5017264;28;20660;-51
2021/01/08 04:02:13;;;;;;;24.40;18.67;;;2.00;99.90;;;;;;5016724;28;20768;-50
2021/01/08 04:04:38;;;;;;;23.57;18.37;;;1.90;99.90;;;;;;5017576;28;20192;-49
2021/01/08 04:07:04;;;;;;;27.87;20.13;;;1.90;99.90;;;;;;5025024;28;20210;-54
2021/01/08 04:09:30;;;;;;;24.97;18.50;;;1.90;99.90;;;;;;5036656;28;20222;-54
2021/01/08 04:11:55;;;;;;;30.17;22.47;;;1.80;99.90;;;;;;5029632;28;20212;-53
2021/01/08 04:14:21;;;;;;;27.63;20.53;;;1.70;99.90;;;;;;5016940;28;20231;-53
2021/01/08 04:16:46;;;;;;;30.67;22.07;;;1.60;99.90;;;;;;5017825;28;20588;-56
2021/01/08 04:19:12;;;;;;;31.37;23.87;;;1.50;99.90;;;;;;5016457;28;20633;-50
2021/01/08 04:21:38;;;;;;;27.73;20.00;;;1.40;99.90;;;;;;5031462;28;20662;-50
2021/01/08 04:24:04;;;;;;;27.60;20.33;;;1.40;99.90;;;;;;5036079;28;20180;-51
2021/01/08 04:26:30;;;;;;;28.47;20.87;;;1.40;99.90;;;;;;5035035;28;20252;-51
2021/01/08 04:28:56;;;;;;;32.13;22.67;;;1.40;99.90;;;;;;5036546;28;20462;-55
2021/01/08 04:31:22;;;;;;;27.67;21.17;;;1.40;99.90;;;;;;5036274;28;20453;-52
2021/01/08 04:33:47;;;;;;;25.13;19.60;;;1.40;99.90;;;;;;5035333;28;20207;-52
2021/01/08 04:36:13;;;;;;;34.53;24.90;;;1.50;99.90;;;;;;5036190;28;20187;-50
2021/01/08 04:38:39;;;;;;;31.17;22.30;;;1.60;99.90;;;;;;5017555;28;20204;-52
2021/01/08 04:41:06;;;;;;;29.97;22.67;;;1.60;99.90;;;;;;5016206;28;20544;-51
2021/01/08 04:43:32;;;;;;;26.53;19.97;;;1.60;99.90;;;;;;5033266;28;20429;-52
2021/01/08 04:46:21;;;;;;;33.83;23.40;;;1.60;99.90;;;;;;5032643;28;20442;-49
2021/01/08 04:48:48;;;;;;;30.10;20.63;;;1.50;99.90;;;;;;5034293;28;20462;-54
2021/01/08 04:51:15;;;;;;;32.70;23.93;;;1.60;99.90;;;;;;5035336;28;20402;-54
2021/01/08 04:53:42;;;;;;;26.43;19.70;;;1.70;99.90;;;;;;5035090;28;20763;-51
2021/01/08 04:56:11;;;;;;;25.33;18.73;;;1.80;99.90;;;;;;5035827;28;20438;-50
2021/01/08 04:58:36;;;;;;;24.63;19.10;;;1.90;99.90;;;;;;5035149;28;20457;-49
2021/01/08 05:01:03;;;;;;;24.37;18.30;;;1.90;99.90;;;;;;5035512;28;20470;-51
2021/01/08 05:03:29;;;;;;;25.07;18.87;;;2.00;99.90;;;;;;5019553;28;20200;-49
2021/01/08 05:05:55;;;;;;;25.60;19.47;;;2.10;99.90;;;;;;5015831;28;20419;-57
2021/01/08 05:08:21;;;;;;;27.07;18.80;;;2.20;99.90;;;;;;5032001;28;20456;-56
2021/01/08 05:10:47;;;;;;;26.10;18.90;;;2.20;99.90;;;;;;5033684;28;20506;-50
2021/01/08 05:13:12;;;;;;;28.83;21.57;;;2.10;99.90;;;;;;5035005;28;20196;-50
2021/01/08 05:15:40;;;;;;;28.23;20.60;;;2.10;99.90;;;;;;5027162;28;20540;-52
2021/01/08 05:18:06;;;;;;;26.70;20.60;;;2.00;99.90;;;;;;5015501;28;20228;-52
2021/01/08 05:20:31;;;;;;;25.97;18.80;;;1.90;99.90;;;;;;5031338;28;20536;-55
2021/01/08 05:22:59;;;;;;;23.83;18.33;;;2.00;99.90;;;;;;5021824;28;20271;-53
2021/01/08 05:25:25;;;;;;;26.20;18.93;;;2.00;99.90;;;;;;5035439;28;20180;-49
2021/01/08 05:27:51;;;;;;;31.37;22.23;;;2.00;99.90;;;;;;5033513;28;20477;-49
2021/01/08 05:30:23;;;;;;;28.03;19.57;;;1.90;99.90;;;;;;5015898;28;20451;-50
2021/01/08 05:33:00;;;;;;;24.33;18.53;;;1.70;99.90;;;;;;5022238;28;20188;-52
2021/01/08 05:35:27;;;;;;;24.70;19.23;;;1.70;99.90;;;;;;5023221;28;20783;-57
2021/01/08 05:37:54;;;;;;;27.90;20.17;;;1.60;99.90;;;;;;5023883;28;20446;-54
2021/01/08 05:40:27;;;;;;;28.47;20.57;;;1.50;99.90;;;;;;5034912;28;20651;-54
2021/01/08 05:42:53;;;;;;;28.07;19.23;;;1.50;99.90;;;;;;5034728;28;20498;-57
2021/01/08 05:45:18;;;;;;;27.40;19.70;;;1.40;99.90;;;;;;5035300;28;20410;-49
2021/01/08 05:47:44;;;;;;;25.90;18.80;;;1.50;99.90;;;;;;5034948;28;20406;-49
2021/01/08 05:50:11;;;;;;;25.13;19.73;;;1.50;99.90;;;;;;5035136;28;20195;-50
2021/01/08 05:52:41;;;;;;;27.43;20.90;;;1.50;99.90;;;;;;5035125;28;20184;-53
2021/01/08 05:55:13;;;;;;;23.10;18.80;;;1.50;99.90;;;;;;5030277;28;20481;-49
2021/01/08 05:57:42;;;;;;;26.67;19.90;;;1.50;99.90;;;;;;5034959;28;20411;-51
2021/01/08 06:00:09;;;;;;;26.83;20.50;;;1.50;99.90;;;;;;5035149;28;20504;-53
2021/01/08 06:02:35;;;;;;;24.23;18.53;;;1.40;99.90;;;;;;5034845;28;20407;-50
2021/01/08 06:05:04;;;;;;;25.57;18.67;;;1.40;99.90;;;;;;5035687;28;20468;-53
2021/01/08 06:07:36;;;;;;;28.80;21.23;;;1.40;99.90;;;;;;5034305;28;20443;-49
2021/01/08 06:10:03;;;;;;;27.43;20.20;;;1.30;99.90;;;;;;5031869;28;20443;-51
2021/01/08 06:12:39;;;;;;;29.77;20.33;;;1.10;99.90;;;;;;5033416;28;20895;-51
2021/01/08 06:15:11;;;;;;;27.40;20.47;;;1.10;99.90;;;;;;5000882;28;20810;-57
2021/01/08 06:17:38;;;;;;;30.43;22.47;;;1.00;99.90;;;;;;5025091;28;20428;-50
2021/01/08 06:20:05;;;;;;;29.20;21.83;;;1.00;99.90;;;;;;5027520;28;20532;-50
2021/01/08 06:22:41;;;;;;;27.13;20.17;;;1.00;99.90;;;;;;5025613;28;20919;-55
2021/01/08 06:25:08;;;;;;;30.23;21.60;;;1.00;99.90;;;;;;5029364;28;20426;-48
2021/01/08 06:27:35;;;;;;;34.83;24.03;;;1.00;99.90;;;;;;5030810;28;20430;-54
2021/01/08 06:30:06;;;;;;;29.57;20.93;;;1.10;99.90;;;;;;5025572;28;20438;-54
2021/01/08 06:32:33;;;;;;;26.90;19.13;;;1.10;99.90;;;;;;5014023;28;20537;-54
2021/01/08 06:35:08;;;;;;;28.50;21.70;;;1.10;99.90;;;;;;5014215;28;20436;-51
2021/01/08 06:37:41;;;;;;;27.53;20.50;;;1.10;99.90;;;;;;5027862;28;20427;-50
2021/01/08 06:40:11;;;;;;;24.97;19.33;;;1.00;99.90;;;;;;5015559;28;20502;-54
2021/01/08 06:42:47;;;;;;;29.20;22.13;;;1.00;99.90;;;;;;5014609;28;20407;-50
2021/01/08 06:45:17;;;;;;;32.03;23.93;;;1.00;99.90;;;;;;5013849;28;20435;-53
2021/01/08 06:47:47;;;;;;;30.60;22.47;;;1.00;99.90;;;;;;5014594;28;20408;-52
2021/01/08 06:50:18;;;;;;;35.23;24.77;;;0.90;99.90;;;;;;5013930;28;20419;-50
2021/01/08 06:52:45;;;;;;;35.60;25.17;;;0.80;99.90;;;;;;5032654;28;20441;-50
2021/01/08 06:55:16;;;;;;;33.17;23.87;;;0.80;99.90;;;;;;5032923;28;20779;-50
2021/01/08 06:57:49;;;;;;;27.03;20.50;;;0.90;99.90;;;;;;5030849;28;20429;-50
2021/01/08 07:00:19;;;;;;;32.10;23.40;;;0.90;99.90;;;;;;5019853;28;20975;-52
2021/01/08 07:02:45;;;;;;;30.83;23.43;;;0.80;99.90;;;;;;5033998;28;20433;-52
2021/01/08 07:05:16;;;;;;;32.13;23.17;;;0.80;99.90;;;;;;5033943;28;20445;-52
2021/01/08 07:07:42;;;;;;;32.67;24.43;;;0.90;99.90;;;;;;5031470;28;20787;-56
2021/01/08 07:10:08;;;;;;;31.20;22.83;;;0.90;99.90;;;;;;5033969;28;20425;-50
2021/01/08 07:12:34;;;;;;;34.73;24.27;;;1.00;99.90;;;;;;5028019;28;20435;-51
2021/01/08 07:15:00;;;;;;;31.77;22.50;;;1.00;99.90;;;;;;5014218;28;20423;-50
2021/01/08 07:17:33;;;;;;;32.53;25.33;;;1.10;99.90;;;;;;5032105;28;20195;-50
2021/01/08 07:20:00;;;;;;;29.52;25.25;;;1.00;99.90;;;;;;5017099;28;20438;-51
2021/01/08 07:22:40;;;;;;;34.07;25.03;;;1.10;99.90;;;;;;5037193;28;20254;-57
2021/01/08 07:25:11;;;;;;;37.67;28.17;;;1.10;99.90;;;;;;5037639;28;20413;-50
2021/01/08 07:27:40;;;;;;;26.03;20.10;;;1.10;99.90;;;;;;5036091;28;20418;-50
2021/01/08 07:30:08;;;;;;;26.87;20.80;;;1.20;99.90;;;;;;5036626;28;20414;-50
2021/01/08 07:32:47;;;;;;;31.90;23.60;;;1.30;99.90;;;;;;5036419;28;20426;-53
2021/01/08 07:35:23;;;;;;;29.53;21.67;;;1.40;99.90;;;;;;5037980;28;20425;-54
2021/01/08 07:38:07;;;;;;;35.77;25.37;;;1.50;99.90;;;;;;5029373;28;20422;-56
2021/01/08 07:40:38;;;;;;;28.07;21.67;;;1.50;99.90;;;;;;5004502;28;20446;-54
2021/01/08 07:43:11;;;;;;;30.73;26.10;;;1.50;99.90;;;;;;5032284;28;20429;-50
2021/01/08 07:45:56;;;;;;;25.57;20.73;;;1.50;99.90;;;;;;5024486;28;20198;-50
2021/01/08 07:48:28;;;;;;;33.00;23.80;;;1.50;99.90;;;;;;5029659;28;20438;-52
2021/01/08 07:50:55;;;;;;;30.07;22.20;;;1.60;99.90;;;;;;5035459;28;20494;-51
2021/01/08 07:53:44;;;;;;;27.47;20.43;;;1.60;99.90;;;;;;5036980;28;20434;-49
2021/01/08 07:56:25;;;;;;;27.83;20.77;;;1.70;99.90;;;;;;5037771;28;20521;-50
2021/01/08 07:58:58;;;;;;;143.67;88.33;;;1.90;99.90;;;;;;5033120;28;20946;-50
2021/01/08 08:01:24;;;;;;;131.70;78.03;;;1.90;99.90;;;;;;5031808;28;20466;-52
2021/01/08 08:04:10;;;;;;;41.33;31.00;;;1.80;99.90;;;;;;5033178;28;20434;-51
2021/01/08 08:06:39;;;;;;;31.60;24.10;;;1.70;99.90;;;;;;5032765;28;20426;-55
2021/01/08 08:09:06;;;;;;;30.87;22.67;;;1.70;99.90;;;;;;5032268;28;20442;-52
2021/01/08 08:11:34;;;;;;;29.53;23.00;;;1.70;99.90;;;;;;5034083;28;20426;-49
2021/01/08 08:14:00;;;;;;;30.87;22.57;;;1.70;99.90;;;;;;5035097;28;20906;-51
2021/01/08 08:16:36;;;;;;;29.10;22.90;;;1.60;99.90;;;;;;5035034;28;20488;-48
2021/01/08 08:19:03;;;;;;;30.93;22.53;;;1.50;99.90;;;;;;5028039;28;20295;-49
2021/01/08 08:21:29;;;;;;;27.93;21.63;;;1.40;99.90;;;;;;5034822;28;20442;-48
2021/01/08 08:23:56;;;;;;;27.30;21.37;;;1.40;99.90;;;;;;5034627;28;20426;-48
2021/01/08 08:26:23;;;;;;;29.70;22.07;;;1.50;99.90;;;;;;5035257;28;20183;-46
2021/01/08 08:29:09;;;;;;;29.10;21.30;;;1.60;99.90;;;;;;5031254;28;20446;-53
2021/01/08 08:31:36;;;;;;;30.87;21.30;;;1.70;99.90;;;;;;5034245;28;20414;-48
2021/01/08 08:34:03;;;;;;;28.97;21.77;;;1.80;99.90;;;;;;5035356;28;20430;-50
2021/01/08 08:36:34;;;;;;;28.23;20.07;;;1.90;99.90;;;;;;5034557;28;20430;-46
2021/01/08 08:39:18;;;;;;;28.20;20.93;;;1.90;99.90;;;;;;5034570;28;20446;-46
2021/01/08 08:41:45;;;;;;;28.30;20.50;;;2.00;99.90;;;;;;5034727;28;20422;-54
2021/01/08 08:44:20;;;;;;;29.33;21.77;;;2.10;99.90;;;;;;5036526;28;20425;-55
2021/01/08 08:46:48;;;;;;;25.13;18.73;;;2.30;99.90;;;;;;5035114;28;20406;-49
2021/01/08 08:49:25;;;;;;;26.23;19.17;;;2.30;99.90;;;;;;5035213;28;20430;-48
2021/01/08 08:51:52;;;;;;;27.63;20.10;;;2.40;99.90;;;;;;5035667;28;20390;-48
2021/01/08 08:54:19;;;;;;;23.00;18.40;;;2.50;99.90;;;;;;5035964;28;20464;-48
2021/01/08 08:56:51;;;;;;;25.33;17.43;;;2.60;99.90;;;;;;5035641;28;20817;-54
2021/01/08 08:59:43;;;;;;;26.63;19.57;;;2.70;99.90;;;;;;5036069;28;20200;-48
2021/01/08 09:02:10;;;;;;;25.13;19.00;;;2.70;99.90;;;;;;5034676;28;20172;-50
2021/01/08 09:04:49;;;;;;;26.23;18.77;;;2.70;99.90;;;;;;5015953;28;568433;-51
2021/01/08 09:07:19;;;;;;;27.07;19.73;;;2.90;99.90;;;;;;5037063;28;20178;-50
2021/01/08 09:09:47;;;;;;;24.53;19.50;;;3.00;99.90;;;;;;5036772;28;20195;-52
2021/01/08 09:12:36;;;;;;;29.40;22.00;;;3.00;99.90;;;;;;5036658;28;20204;-54
2021/01/08 09:15:05;;;;;;;24.47;18.87;;;2.80;99.90;;;;;;5036623;28;20243;-47
2021/01/08 09:17:39;;;;;;;26.57;20.13;;;2.70;99.90;;;;;;5036408;28;20465;-47
2021/01/08 09:20:06;;;;;;;26.07;19.50;;;2.60;99.90;;;;;;5034799;28;20481;-51
2021/01/08 09:22:35;;;;;;;27.67;21.43;;;2.50;99.90;;;;;;5036503;28;20513;-55
2021/01/08 09:25:03;;;;;;;25.93;19.17;;;2.40;99.90;;;;;;5035574;28;20266;-52
2021/01/08 09:27:28;;;;;;;25.33;19.27;;;2.50;99.90;;;;;;5035107;28;20406;-51
2021/01/08 09:30:05;;;;;;;24.87;19.73;;;2.60;99.90;;;;;;5035635;28;20194;-49
2021/01/08 09:32:32;;;;;;;29.47;21.73;;;2.60;99.90;;;;;;5035179;28;20160;-50
2021/01/08 09:35:08;;;;;;;28.87;21.23;;;2.60;99.90;;;;;;5035301;28;20222;-48
2021/01/08 09:37:38;;;;;;;28.70;21.30;;;2.60;99.90;;;;;;5035561;28;20426;-49
2021/01/08 09:40:12;;;;;;;30.80;23.30;;;2.60;99.90;;;;;;5034508;28;20465;-49
2021/01/08 09:42:38;;;;;;;28.47;21.30;;;2.60;99.90;;;;;;5036653;28;20890;-50
2021/01/08 09:45:23;;;;;;;28.20;21.10;;;2.60;99.90;;;;;;5035240;28;20409;-50
2021/01/08 09:47:50;;;;;;;28.93;21.33;;;2.60;99.90;;;;;;5036041;28;20183;-48
2021/01/08 09:50:23;;;;;;;30.50;22.00;;;2.50;99.90;;;;;;5035933;28;20183;-52
2021/01/08 09:52:50;;;;;;;31.17;22.10;;;2.40;99.90;;;;;;5035475;28;20187;-48
2021/01/08 09:55:26;;;;;;;28.33;21.77;;;2.40;99.90;;;;;;5034328;28;20918;-51
2021/01/08 09:57:58;;;;;;;32.20;24.30;;;2.40;99.90;;;;;;5035940;28;20229;-46
2021/01/08 10:00:42;;;;;;;30.37;22.30;;;2.40;99.90;;;;;;5035351;28;20454;-46
2021/01/08 10:03:18;;;;;;;31.33;23.17;;;2.30;99.90;;;;;;5035681;28;20180;-55
2021/01/08 10:05:43;;;;;;;25.67;20.03;;;2.40;99.90;;;;;;5035148;28;20183;-46
2021/01/08 10:08:20;;;;;;;25.43;20.13;;;2.30;99.90;;;;;;5034961;28;20623;-52
2021/01/08 10:10:46;;;;;;;27.27;20.70;;;2.40;99.90;;;;;;5034674;28;20628;-54
2021/01/08 10:13:20;;;;;;;28.60;21.33;;;2.30;99.90;;;;;;5034723;28;20179;-53
2021/01/08 10:15:48;;;;;;;26.57;20.30;;;2.40;99.90;;;;;;5033258;28;20175;-46
2021/01/08 10:18:18;;;;;;;25.93;20.23;;;2.40;99.90;;;;;;5031430;28;20207;-49
2021/01/08 10:20:48;;;;;;;26.53;19.70;;;2.50;99.90;;;;;;5031879;28;20659;-47
2021/01/08 10:23:17;;;;;;;26.97;20.10;;;2.40;99.90;;;;;;5033294;28;20571;-52
2021/01/08 10:25:43;;;;;;;26.70;20.67;;;2.40;99.90;;;;;;5032667;28;20258;-49
2021/01/08 10:28:23;;;;;;;25.27;19.70;;;2.70;99.90;;;;;;5033263;28;20187;-50
2021/01/08 10:30:51;;;;;;;24.93;19.37;;;2.90;99.90;;;;;;5034094;28;20180;-47
2021/01/08 10:33:17;;;;;;;30.63;21.33;;;3.20;99.90;;;;;;5035523;28;20175;-49
2021/01/08 10:35:48;;;;;;;25.20;19.33;;;3.40;99.90;;;;;;5034249;28;20576;-51
2021/01/08 10:38:13;;;;;;;28.20;19.50;;;3.70;99.90;;;;;;5033280;28;20198;-46
2021/01/08 10:40:39;;;;;;;26.17;20.33;;;3.90;99.90;;;;;;5034166;28;20195;-50
2021/01/08 10:43:05;;;;;;;24.90;20.07;;;4.00;99.90;;;;;;5033605;28;20202;-49
2021/01/08 10:45:30;;;;;;;26.93;20.60;;;4.10;99.90;;;;;;5033610;28;20237;-47
2021/01/08 10:47:56;;;;;;;27.47;20.87;;;4.10;99.90;;;;;;5033629;28;20245;-49
2021/01/08 10:50:21;;;;;;;25.87;21.53;;;4.00;99.90;;;;;;5034483;28;20184;-45
2021/01/08 10:52:47;;;;;;;25.03;20.13;;;3.90;99.90;;;;;;5015988;28;20194;-47
2021/01/08 10:55:12;;;;;;;25.50;19.87;;;3.90;99.90;;;;;;4999634;28;20226;-47
2021/01/08 10:57:38;;;;;;;25.10;19.57;;;4.00;99.90;;;;;;5033503;28;20532;-46
2021/01/08 11:00:09;;;;;;;31.37;20.40;;;4.00;99.90;;;;;;5033888;28;20218;-47
2021/01/08 11:02:39;;;;;;;25.53;19.67;;;3.90;99.90;;;;;;5034183;28;20183;-46
2021/01/08 11:05:07;;;;;;;26.67;20.73;;;3.90;99.90;;;;;;5017220;28;20160;-48
2021/01/08 11:07:33;;;;;;;28.70;20.03;;;3.80;99.90;;;;;;5030291;28;20183;-54
2021/01/08 11:10:00;;;;;;;26.47;20.63;;;3.70;99.90;;;;;;5030671;28;20180;-48
2021/01/08 11:12:26;;;;;;;26.50;20.17;;;3.70;99.90;;;;;;5033196;28;20176;-49
2021/01/08 11:14:53;;;;;;;24.30;19.50;;;3.70;99.90;;;;;;5015896;28;20531;-50
2021/01/08 11:17:18;;;;;;;26.43;20.70;;;3.60;99.90;;;;;;5034451;28;20198;-47
2021/01/08 11:19:44;;;;;;;24.30;19.57;;;3.60;99.90;;;;;;5029297;28;20220;-52
2021/01/08 11:22:09;;;;;;;24.03;19.03;;;3.40;99.90;;;;;;5032704;28;20226;-49
2021/01/08 11:24:37;;;;;;;23.27;18.07;;;3.40;99.90;;;;;;5032686;28;20184;-47
2021/01/08 11:27:04;;;;;;;23.40;18.23;;;3.50;99.90;;;;;;5033023;28;20200;-45
2021/01/08 11:29:29;;;;;;;24.83;19.43;;;3.40;99.90;;;;;;5032901;28;20610;-47
2021/01/08 11:31:55;;;;;;;24.27;18.50;;;3.40;99.90;;;;;;5015891;28;20700;-49
2021/01/08 11:34:20;;;;;;;28.33;20.53;;;3.30;99.90;;;;;;5032765;28;20168;-49
2021/01/08 11:36:46;;;;;;;25.07;20.03;;;3.30;99.90;;;;;;5032648;28;20180;-47
2021/01/08 11:39:13;;;;;;;25.17;20.80;;;3.20;99.90;;;;;;5032771;28;20211;-48
2021/01/08 11:41:39;;;;;;;25.70;19.43;;;3.20;99.90;;;;;;5034213;28;20667;-51
2021/01/08 11:44:05;;;;;;;26.03;19.90;;;3.10;99.90;;;;;;5033595;28;20178;-49
2021/01/08 11:46:31;;;;;;;23.97;19.43;;;3.10;99.90;;;;;;5032846;28;20187;-48
2021/01/08 11:48:57;;;;;;;24.17;19.30;;;3.20;99.90;;;;;;5032991;28;20672;-47
2021/01/08 11:51:23;;;;;;;21.13;17.30;;;3.40;99.90;;;;;;5033786;28;20172;-50
2021/01/08 11:53:49;;;;;;;27.67;19.30;;;3.40;99.90;;;;;;5034445;28;20183;-54
2021/01/08 11:56:15;;;;;;;22.37;17.43;;;3.40;99.90;;;;;;5033573;28;20346;-49
2021/01/08 11:58:43;;;;;;;24.23;19.37;;;3.40;99.90;;;;;;5033892;28;20231;-48
2021/01/08 12:01:09;;;;;;;24.50;19.23;;;3.30;99.90;;;;;;5033496;28;20215;-47
2021/01/08 12:03:39;;;;;;;22.57;18.57;;;3.30;99.90;;;;;;5034203;28;20188;-55
2021/01/08 12:06:06;;;;;;;23.10;18.63;;;3.20;99.90;;;;;;5036236;28;20251;-51
2021/01/08 12:08:32;;;;;;;23.40;18.40;;;3.20;99.90;;;;;;5037612;28;20258;-53
2021/01/08 12:11:01;;;;;;;24.10;18.83;;;3.20;99.90;;;;;;5037346;28;20176;-46
2021/01/08 12:13:27;;;;;;;24.37;19.27;;;3.30;99.90;;;;;;5038093;28;20175;-45
2021/01/08 12:15:53;;;;;;;24.07;18.97;;;3.40;99.90;;;;;;5036773;28;20184;-51
2021/01/08 12:18:19;;;;;;;21.50;17.67;;;3.40;99.90;;;;;;5037718;28;20200;-46
2021/01/08 12:20:45;;;;;;;27.40;20.87;;;3.40;99.90;;;;;;5035605;28;20254;-44
2021/01/08 12:23:11;;;;;;;27.43;20.87;;;3.30;99.90;;;;;;5036889;28;20210;-48
2021/01/08 12:25:41;;;;;;;25.73;20.77;;;3.30;99.90;;;;;;5037205;28;20172;-50
2021/01/08 12:28:07;;;;;;;26.63;21.67;;;3.30;99.90;;;;;;5036115;28;20248;-46
2021/01/08 12:30:33;;;;;;;26.90;21.53;;;3.20;99.90;;;;;;5036870;28;20175;-46
2021/01/08 12:33:00;;;;;;;29.33;21.77;;;3.20;99.90;;;;;;5036755;28;20231;-51
2021/01/08 12:35:26;;;;;;;32.67;24.63;;;3.20;99.90;;;;;;5037696;28;20223;-47
2021/01/08 12:37:52;;;;;;;69.83;48.47;;;3.30;99.90;;;;;;5019300;28;20730;-50
2021/01/08 12:40:19;;;;;;;32.67;26.20;;;3.30;99.90;;;;;;5035700;28;20680;-51
2021/01/08 12:42:49;;;;;;;26.60;21.20;;;3.30;99.90;;;;;;5035772;28;20188;-49